Time;durP1;ratioP1;P1;durP2;ratioP2;P2;SDS_P1;SDS_P2;PMS_P1;PMS_P2;Temp;Humidity;BMP_temperature;BMP_pressure;BME280_temperature;BME280_humidity;BME280_pressure;Samples;Min_cycle;Max_cycle;Signal;HPM_P1;HPM_P2
2023/09/08 00:02:25;;;;;;;7.47;4.20;;;;;;;-141.50;100.00;63355.56;5059298;28;20059;-78
2023/09/08 00:04:52;;;;;;;6.55;3.85;;;;;;;-141.50;100.00;63355.56;5062756;28;20037;-77
2023/09/08 00:07:20;;;;;;;9.57;3.42;;;;;;;-141.50;100.00;63355.56;5060585;28;20071;-78
2023/09/08 00:09:47;;;;;;;5.53;3.50;;;;;;;-141.50;100.00;63355.56;5059263;28;20060;-79
2023/09/08 00:12:14;;;;;;;6.35;3.70;;;;;;;-141.50;100.00;63355.56;5061498;28;20048;-79
2023/09/08 00:14:41;;;;;;;5.78;3.60;;;;;;;-141.50;100.00;63355.56;5043610;28;20110;-77
2023/09/08 00:17:08;;;;;;;6.45;3.30;;;;;;;-141.50;100.00;63355.56;5043515;28;20052;-79
2023/09/08 00:19:35;;;;;;;8.18;4.22;;;;;;;-141.50;100.00;63355.56;5034486;28;20041;-79
2023/09/08 00:22:05;;;;;;;5.97;3.70;;;;;;;-141.50;100.00;63355.56;5055648;28;20864;-80
2023/09/08 00:24:33;;;;;;;6.57;3.95;;;;;;;-141.50;100.00;63355.56;5011993;28;20049;-78
2023/09/08 00:27:02;;;;;;;9.18;3.75;;;;;;;-141.50;100.00;63355.56;5059998;28;20072;-80
2023/09/08 00:29:29;;;;;;;8.38;3.83;;;;;;;-141.50;100.00;63355.56;5062733;28;20056;-79
2023/09/08 00:31:56;;;;;;;7.05;3.65;;;;;;;-141.50;100.00;63355.56;5042173;28;20064;-79
2023/09/08 00:34:23;;;;;;;7.93;4.13;;;;;;;-141.50;100.00;63355.56;5045021;28;20121;-79
2023/09/08 00:36:51;;;;;;;7.25;3.70;;;;;;;-141.50;100.00;63355.56;5028167;28;20079;-80
2023/09/08 00:39:17;;;;;;;5.47;3.83;;;;;;;-141.50;100.00;63355.56;5059078;28;20057;-78
2023/09/08 00:41:47;;;;;;;6.47;3.83;;;;;;;-141.50;100.00;63355.56;5041033;28;20075;-79
2023/09/08 00:44:13;;;;;;;7.60;3.88;;;;;;;-141.50;100.00;63355.56;5058603;28;20045;-78
2023/09/08 00:46:43;;;;;;;8.48;3.80;;;;;;;-141.50;100.00;63355.56;5058278;28;20067;-77
2023/09/08 00:49:11;;;;;;;6.57;3.97;;;;;;;-141.50;100.00;63355.56;5040817;28;20072;-78
2023/09/08 00:51:39;;;;;;;7.63;4.00;;;;;;;-141.50;100.00;63355.56;5059004;28;20521;-79
2023/09/08 00:54:06;;;;;;;7.18;4.30;;;;;;;-141.50;100.00;63355.56;5042101;28;20048;-79
2023/09/08 00:56:38;;;;;;;7.22;3.72;;;;;;;-141.50;100.00;63355.56;5043387;28;21620;-80
2023/09/08 00:59:05;;;;;;;7.68;3.78;;;;;;;-141.50;100.00;63355.56;5059084;28;20056;-80
2023/09/08 01:01:34;;;;;;;10.07;4.40;;;;;;;-141.50;100.00;63355.56;5043126;28;20105;-77
2023/09/08 01:04:04;;;;;;;7.47;3.92;;;;;;;-141.50;100.00;63355.56;5039520;28;20446;-80
2023/09/08 01:06:32;;;;;;;8.35;4.25;;;;;;;-141.50;100.00;63355.56;5060410;28;20040;-79
2023/09/08 01:09:00;;;;;;;6.65;4.25;;;;;;;-141.50;100.00;63355.56;5060369;28;20041;-79
2023/09/08 01:11:28;;;;;;;7.70;4.18;;;;;;;-141.50;100.00;63355.56;5038640;28;20059;-79
2023/09/08 01:13:54;;;;;;;7.38;4.00;;;;;;;-141.50;100.00;63355.56;5036345;28;20075;-79
2023/09/08 01:16:21;;;;;;;7.97;3.83;;;;;;;-141.50;100.00;63355.56;5043043;28;20527;-79
2023/09/08 01:18:49;;;;;;;8.82;4.43;;;;;;;-141.50;100.00;63355.56;5035906;28;20453;-79
2023/09/08 01:21:42;;;;;;;6.15;3.70;;;;;;;-141.50;100.00;63355.56;5036477;28;20048;-79
2023/09/08 01:24:11;;;;;;;7.82;4.35;;;;;;;-141.50;100.00;63355.56;5030280;28;20049;-80
2023/09/08 01:26:41;;;;;;;7.00;3.90;;;;;;;-141.50;100.00;63355.56;5036851;28;20128;-79
2023/09/08 01:29:10;;;;;;;6.88;3.70;;;;;;;-141.50;100.00;63355.56;5036923;28;20052;-79
2023/09/08 01:31:38;;;;;;;6.75;3.78;;;;;;;-141.50;100.00;63355.56;5043233;28;20068;-78
2023/09/08 01:34:08;;;;;;;9.10;3.97;;;;;;;-141.50;100.00;63355.56;5024836;28;20778;-79
2023/09/08 01:36:37;;;;;;;7.47;4.22;;;;;;;-141.50;100.00;63355.56;5038094;28;20044;-79
2023/09/08 01:39:04;;;;;;;8.05;4.03;;;;;;;-141.50;100.00;63355.56;5042763;28;20056;-77
2023/09/08 01:41:32;;;;;;;6.22;3.83;;;;;;;-141.50;100.00;63355.56;5043383;28;20057;-80
2023/09/08 01:44:00;;;;;;;8.80;4.53;;;;;;;-141.50;100.00;63355.56;5059601;28;20049;-80
2023/09/08 01:46:27;;;;;;;8.73;4.20;;;;;;;-141.50;100.00;63355.56;5044597;28;20114;-75
2023/09/08 01:48:54;;;;;;;8.18;4.32;;;;;;;-141.50;100.00;63355.56;5048997;28;20045;-79
2023/09/08 01:51:21;;;;;;;7.35;3.97;;;;;;;-141.50;100.00;63355.56;5041675;28;20041;-79
2023/09/08 01:53:47;;;;;;;7.90;4.32;;;;;;;-141.50;100.00;63355.56;5063615;28;20053;-79
2023/09/08 01:56:14;;;;;;;7.32;3.85;;;;;;;-141.50;100.00;63355.56;5046405;28;20047;-79
2023/09/08 01:58:41;;;;;;;9.18;4.25;;;;;;;-141.50;100.00;63355.56;5064296;28;20037;-78
2023/09/08 02:01:08;;;;;;;7.03;4.22;;;;;;;-141.50;100.00;63355.56;5041681;28;20056;-79
2023/09/08 02:03:35;;;;;;;7.68;4.28;;;;;;;-141.50;100.00;63355.56;5030253;28;20139;-78
2023/09/08 02:06:02;;;;;;;8.68;3.53;;;;;;;-141.50;100.00;63355.56;5029736;28;20068;-79
2023/09/08 02:08:30;;;;;;;7.43;4.22;;;;;;;-141.50;100.00;63355.56;5047392;28;20099;-78
2023/09/08 02:10:58;;;;;;;8.15;4.18;;;;;;;-141.50;100.00;63355.56;5033788;28;20442;-78
2023/09/08 02:13:25;;;;;;;5.88;3.88;;;;;;;-141.50;100.00;63355.56;5056380;28;20041;-78
2023/09/08 02:15:52;;;;;;;8.57;4.55;;;;;;;-141.50;100.00;63355.56;5042659;28;20114;-79
2023/09/08 02:18:18;;;;;;;9.02;4.38;;;;;;;-141.50;100.00;63355.56;5045773;28;20064;-79
2023/09/08 02:20:45;;;;;;;7.38;4.20;;;;;;;-141.50;100.00;63355.56;5043012;28;20113;-78
2023/09/08 02:23:12;;;;;;;7.63;4.38;;;;;;;-141.50;100.00;63355.56;5034495;28;20099;-78
2023/09/08 02:25:39;;;;;;;7.45;4.35;;;;;;;-141.50;100.00;63355.56;5044415;28;20103;-79
2023/09/08 02:28:06;;;;;;;8.82;4.40;;;;;;;-141.50;100.00;63355.56;5046955;28;20057;-80
2023/09/08 02:30:33;;;;;;;7.60;4.07;;;;;;;-141.50;100.00;63355.56;5047632;28;20068;-81
2023/09/08 02:33:00;;;;;;;7.72;4.10;;;;;;;-141.50;100.00;63355.56;5049042;28;20041;-81
2023/09/08 02:35:27;;;;;;;8.35;4.60;;;;;;;-141.50;100.00;63355.56;5049426;28;20049;-79
2023/09/08 02:37:57;;;;;;;7.47;4.18;;;;;;;-141.50;100.00;63355.56;5050389;28;20048;-79
2023/09/08 02:40:26;;;;;;;7.68;4.63;;;;;;;-141.50;100.00;63355.56;5048958;28;20045;-79
2023/09/08 02:42:52;;;;;;;6.60;4.13;;;;;;;-141.50;100.00;63355.56;5048879;28;20041;-79
2023/09/08 02:45:19;;;;;;;8.30;3.67;;;;;;;-141.50;100.00;63355.56;5049465;28;20051;-78
2023/09/08 02:47:48;;;;;;;7.20;4.03;;;;;;;-141.50;100.00;63355.56;5066718;28;20055;-79
2023/09/08 02:50:15;;;;;;;8.65;4.75;;;;;;;-141.50;100.00;63355.56;5033078;28;20190;-78
2023/09/08 02:52:44;;;;;;;7.53;4.20;;;;;;;-141.50;100.00;63355.56;5049540;28;20051;-79
2023/09/08 02:55:11;;;;;;;7.35;4.18;;;;;;;-141.50;100.00;63355.56;5033225;28;20053;-79
2023/09/08 02:57:39;;;;;;;7.60;3.90;;;;;;;-141.50;100.00;63355.56;5065482;28;20093;-80
2023/09/08 03:00:09;;;;;;;8.77;4.68;;;;;;;-141.50;100.00;63355.56;5044886;28;20045;-79
2023/09/08 03:02:36;;;;;;;9.93;4.82;;;;;;;-141.50;100.00;63355.56;5044394;28;20056;-80
2023/09/08 03:05:03;;;;;;;9.85;4.40;;;;;;;-141.50;100.00;63355.56;5043189;28;20080;-80
2023/09/08 03:07:33;;;;;;;7.15;4.43;;;;;;;-141.50;100.00;63355.56;5037892;28;20115;-78
2023/09/08 03:10:00;;;;;;;7.53;4.03;;;;;;;-141.50;100.00;63355.56;5068630;28;20049;-78
2023/09/08 03:12:27;;;;;;;6.78;4.20;;;;;;;-141.50;100.00;63355.56;5034815;28;20045;-78
2023/09/08 03:14:54;;;;;;;9.60;4.90;;;;;;;-141.50;100.00;63355.56;5056506;28;20052;-80
2023/09/08 03:17:22;;;;;;;9.57;4.40;;;;;;;-141.50;100.00;63355.56;5064829;28;20049;-79
2023/09/08 03:19:51;;;;;;;8.65;4.50;;;;;;;-141.50;100.00;63355.56;5054308;28;20040;-79
2023/09/08 03:22:18;;;;;;;8.23;4.35;;;;;;;-141.50;100.00;63355.56;5046756;28;20075;-78
2023/09/08 03:24:45;;;;;;;8.68;4.60;;;;;;;-141.50;100.00;63355.56;5031495;28;20048;-79
2023/09/08 03:27:12;;;;;;;6.68;4.57;;;;;;;-141.50;100.00;63355.56;5047425;28;20052;-78
2023/09/08 03:29:39;;;;;;;6.95;3.97;;;;;;;-141.50;100.00;63355.56;5030460;28;20048;-80
2023/09/08 03:32:06;;;;;;;8.68;4.32;;;;;;;-141.50;100.00;63355.56;5061259;28;20531;-80
2023/09/08 03:34:33;;;;;;;8.85;4.40;;;;;;;-141.50;100.00;63355.56;5046414;28;20049;-79
2023/09/08 03:37:00;;;;;;;7.88;3.83;;;;;;;-141.50;100.00;63355.56;5028765;28;20048;-78
2023/09/08 03:39:27;;;;;;;7.72;4.40;;;;;;;-141.50;100.00;63355.56;5063148;28;20051;-79
2023/09/08 03:41:54;;;;;;;8.38;4.47;;;;;;;-141.50;100.00;63355.56;5062955;28;20568;-80
2023/09/08 03:44:22;;;;;;;8.60;4.57;;;;;;;-141.50;100.00;63355.56;5025829;28;20503;-79
2023/09/08 03:46:48;;;;;;;9.20;4.50;;;;;;;-141.50;100.00;63355.56;5056304;28;20033;-78
2023/09/08 03:49:15;;;;;;;8.43;4.30;;;;;;;-141.50;100.00;63355.56;5037059;28;20059;-79
2023/09/08 03:51:42;;;;;;;6.20;3.75;;;;;;;-141.50;100.00;63355.56;5051819;28;20048;-79
2023/09/08 03:54:09;;;;;;;7.28;4.22;;;;;;;-141.50;100.00;63355.56;5051792;28;20041;-78
2023/09/08 03:56:36;;;;;;;8.43;4.53;;;;;;;-141.50;100.00;63355.56;5072412;28;20072;-78
2023/09/08 03:59:03;;;;;;;7.40;3.65;;;;;;;-141.50;100.00;63355.56;5069828;28;20092;-78
2023/09/08 04:01:30;;;;;;;8.70;4.10;;;;;;;-141.50;100.00;63355.56;5053698;28;20116;-79
2023/09/08 04:03:57;;;;;;;7.78;4.03;;;;;;;-141.50;100.00;63355.56;5034824;28;20063;-78
2023/09/08 04:06:24;;;;;;;6.07;3.75;;;;;;;-141.50;100.00;63355.56;5030331;28;20033;-79
2023/09/08 04:08:51;;;;;;;5.65;3.42;;;;;;;-141.50;100.00;63355.56;5061836;28;20568;-79
2023/09/08 04:11:18;;;;;;;6.90;4.00;;;;;;;-141.50;100.00;63355.56;5044607;28;20568;-78
2023/09/08 04:13:45;;;;;;;6.80;3.65;;;;;;;-141.50;100.00;63355.56;5029152;28;20049;-79
2023/09/08 04:16:12;;;;;;;7.07;3.95;;;;;;;-141.50;100.00;63355.56;5044466;28;20048;-79
2023/09/08 04:18:38;;;;;;;6.72;3.67;;;;;;;-141.50;100.00;63355.56;5044096;28;20049;-79
2023/09/08 04:21:08;;;;;;;7.25;4.50;;;;;;;-141.50;100.00;63355.56;5044209;28;20068;-78
2023/09/08 04:23:36;;;;;;;6.85;4.10;;;;;;;-141.50;100.00;63355.56;5043752;28;21812;-78
2023/09/08 04:26:03;;;;;;;7.68;3.97;;;;;;;-141.50;100.00;63355.56;5042918;28;20105;-81
2023/09/08 04:28:30;;;;;;;6.10;3.72;;;;;;;-141.50;100.00;63355.56;5029204;28;20067;-80
2023/09/08 04:30:56;;;;;;;8.00;3.55;;;;;;;-141.50;100.00;63355.56;5055428;28;20072;-79
2023/09/08 04:33:24;;;;;;;6.80;3.90;;;;;;;-141.50;100.00;63355.56;5035298;28;20057;-79
2023/09/08 04:35:51;;;;;;;7.53;4.32;;;;;;;-141.50;100.00;63355.56;5057529;28;20136;-80
2023/09/08 04:38:18;;;;;;;7.20;3.78;;;;;;;-141.50;100.00;63355.56;5045435;28;20052;-80
2023/09/08 04:40:48;;;;;;;7.82;4.30;;;;;;;-141.50;100.00;63355.56;5045341;28;20068;-79
2023/09/08 04:43:15;;;;;;;6.10;3.17;;;;;;;-141.50;100.00;63355.56;5046618;28;20431;-80
2023/09/08 04:45:42;;;;;;;7.97;4.22;;;;;;;-141.50;100.00;63355.56;5028075;28;20102;-79
2023/09/08 04:48:09;;;;;;;7.10;3.83;;;;;;;-141.50;100.00;63355.56;5044742;28;20048;-80
2023/09/08 04:50:38;;;;;;;8.55;4.05;;;;;;;-141.50;100.00;63355.56;5040283;28;20037;-79
2023/09/08 04:53:06;;;;;;;6.05;3.42;;;;;;;-141.50;100.00;63355.56;5040609;28;20068;-80
2023/09/08 04:55:32;;;;;;;9.20;4.60;;;;;;;-141.50;100.00;63355.56;5024899;28;20041;-78
2023/09/08 04:57:59;;;;;;;9.48;4.38;;;;;;;-141.50;100.00;63355.56;5035993;28;20025;-78
2023/09/08 05:00:26;;;;;;;7.45;4.30;;;;;;;-141.50;100.00;63355.56;5039657;28;20509;-79
2023/09/08 05:02:53;;;;;;;6.53;4.03;;;;;;;-141.50;100.00;63355.56;5037533;28;20100;-79
2023/09/08 05:05:20;;;;;;;10.43;4.40;;;;;;;-141.50;100.00;63355.56;5043353;28;20136;-79
2023/09/08 05:07:47;;;;;;;8.05;4.35;;;;;;;-141.50;100.00;63355.56;5042181;28;20052;-80
2023/09/08 05:10:14;;;;;;;7.95;4.22;;;;;;;-141.50;100.00;63355.56;5042386;28;20075;-79
2023/09/08 05:12:41;;;;;;;7.78;4.55;;;;;;;-141.50;100.00;63355.56;5055722;28;20086;-77
2023/09/08 05:15:14;;;;;;;6.82;4.28;;;;;;;-141.50;100.00;63355.56;5030272;28;20055;-78
2023/09/08 05:17:45;;;;;;;8.02;4.85;;;;;;;-141.50;100.00;63355.56;5020789;28;20041;-78
2023/09/08 05:20:12;;;;;;;8.95;4.45;;;;;;;-141.50;100.00;63355.56;5048036;28;20124;-79
2023/09/08 05:22:39;;;;;;;8.55;4.35;;;;;;;-141.50;100.00;63355.56;5059102;28;20829;-77
2023/09/08 05:25:07;;;;;;;7.18;4.13;;;;;;;-141.50;100.00;63355.56;5042478;28;20049;-78
2023/09/08 05:27:34;;;;;;;9.00;4.60;;;;;;;-141.50;100.00;63355.56;5044566;28;20052;-79
2023/09/08 05:30:01;;;;;;;7.53;3.78;;;;;;;-141.50;100.00;63355.56;5043451;28;20685;-80
2023/09/08 05:32:30;;;;;;;8.82;4.30;;;;;;;-141.50;100.00;63355.56;5044190;28;20052;-79
2023/09/08 05:34:57;;;;;;;7.50;4.60;;;;;;;-141.50;100.00;63355.56;5061855;28;20041;-80
2023/09/08 05:37:24;;;;;;;7.93;4.25;;;;;;;-141.50;100.00;63355.56;5030544;28;20049;-79
2023/09/08 05:39:51;;;;;;;8.35;4.70;;;;;;;-141.50;100.00;63355.56;5030211;28;20468;-79
2023/09/08 05:42:17;;;;;;;8.68;4.57;;;;;;;-141.50;100.00;63355.56;5030416;28;20047;-80
2023/09/08 05:44:46;;;;;;;8.77;4.63;;;;;;;-141.50;100.00;63355.56;5047889;28;20056;-79
2023/09/08 05:47:13;;;;;;;9.07;4.88;;;;;;;-141.50;100.00;63355.56;5046447;28;22537;-79
2023/09/08 05:49:40;;;;;;;7.63;4.47;;;;;;;-141.50;100.00;63355.56;5064029;28;20479;-80
2023/09/08 05:52:08;;;;;;;7.20;4.20;;;;;;;-141.50;100.00;63355.56;5046944;28;20070;-79
2023/09/08 05:54:35;;;;;;;9.10;4.60;;;;;;;-141.50;100.00;63355.56;5047769;28;20048;-79
2023/09/08 05:57:16;;;;;;;7.60;4.40;;;;;;;-141.50;100.00;63355.56;5037241;28;20094;-79
2023/09/08 05:59:43;;;;;;;9.00;4.43;;;;;;;-141.50;100.00;63355.56;5036549;28;20047;-78
2023/09/08 06:02:10;;;;;;;9.50;5.15;;;;;;;-141.50;100.00;63355.56;5023058;28;20056;-80
2023/09/08 06:04:37;;;;;;;7.50;4.70;;;;;;;-141.50;100.00;63355.56;5058757;28;20048;-78
2023/09/08 06:07:04;;;;;;;10.20;5.25;;;;;;;-141.50;100.00;63355.56;5025169;28;20434;-79
2023/09/08 06:09:32;;;;;;;9.15;5.30;;;;;;;-141.50;100.00;63355.56;5023373;28;20046;-79
2023/09/08 06:11:59;;;;;;;13.35;6.03;;;;;;;-141.50;100.00;63355.56;5041423;28;20037;-80
2023/09/08 06:14:27;;;;;;;9.27;5.82;;;;;;;-141.50;100.00;63355.56;5026858;28;20044;-79
2023/09/08 06:16:54;;;;;;;9.73;5.60;;;;;;;-141.50;100.00;63355.56;5043467;28;20045;-80
2023/09/08 06:19:21;;;;;;;11.52;6.20;;;;;;;-141.50;100.00;63355.56;5028345;28;20041;-80
2023/09/08 06:21:50;;;;;;;10.68;6.53;;;;;;;-141.50;100.00;63355.56;5029279;28;20236;-79
2023/09/08 06:24:17;;;;;;;9.27;5.68;;;;;;;-141.50;100.00;63355.56;5062927;28;20561;-79
2023/09/08 06:26:44;;;;;;;10.55;6.20;;;;;;;-141.50;100.00;63355.56;5044984;28;20036;-79
2023/09/08 06:29:11;;;;;;;11.05;6.72;;;;;;;-141.50;100.00;63355.56;5045596;28;20049;-80
2023/09/08 06:31:38;;;;;;;11.60;6.47;;;;;;;-141.50;100.00;63355.56;5044686;28;20041;-80
2023/09/08 06:34:05;;;;;;;11.55;6.32;;;;;;;-141.50;100.00;63355.56;5029690;28;20407;-79
2023/09/08 06:36:32;;;;;;;12.30;5.93;;;;;;;-141.50;100.00;63355.56;5046490;28;20082;-79
2023/09/08 06:38:59;;;;;;;10.95;5.95;;;;;;;-141.50;100.00;63355.56;5045971;28;20041;-79
2023/09/08 06:41:27;;;;;;;13.90;6.35;;;;;;;-141.50;100.00;63355.56;5047120;28;20108;-78
2023/09/08 06:43:56;;;;;;;11.27;6.22;;;;;;;-141.50;100.00;63355.56;5046441;28;20037;-79
2023/09/08 06:46:23;;;;;;;11.55;6.00;;;;;;;-141.50;100.00;63355.56;5064262;28;20415;-79
2023/09/08 06:48:50;;;;;;;11.77;5.85;;;;;;;-141.50;100.00;63355.56;5038423;28;20064;-80
2023/09/08 06:51:18;;;;;;;9.63;5.30;;;;;;;-141.50;100.00;63355.56;5033429;28;20067;-80
2023/09/08 06:53:55;;;;;;;10.43;5.72;;;;;;;-141.50;100.00;63355.56;5045839;28;20041;-79
2023/09/08 06:56:23;;;;;;;13.27;6.18;;;;;;;-141.50;100.00;63355.56;5057571;28;20099;-80
2023/09/08 06:58:51;;;;;;;9.43;5.20;;;;;;;-141.50;100.00;63355.56;5043940;28;20150;-78
2023/09/08 07:01:19;;;;;;;9.77;4.90;;;;;;;-141.50;100.00;63355.56;5043555;28;20135;-79
2023/09/08 07:03:46;;;;;;;8.63;4.93;;;;;;;-141.50;100.00;63355.56;5027619;28;20099;-79
2023/09/08 07:06:14;;;;;;;8.27;4.93;;;;;;;-141.50;100.00;63355.56;5044438;28;20053;-79
2023/09/08 07:08:41;;;;;;;9.98;5.13;;;;;;;-141.50;100.00;63355.56;5044994;28;20048;-79
2023/09/08 07:11:08;;;;;;;11.23;4.95;;;;;;;-141.50;100.00;63355.56;5044561;28;20070;-80
2023/09/08 07:13:36;;;;;;;8.35;4.43;;;;;;;-141.50;100.00;63355.56;5044560;28;20047;-79
2023/09/08 07:16:03;;;;;;;8.77;4.57;;;;;;;-141.50;100.00;63355.56;5044995;28;20573;-78
2023/09/08 07:18:35;;;;;;;7.72;4.40;;;;;;;-141.50;100.00;63355.56;5045464;28;20049;-78
2023/09/08 07:21:04;;;;;;;7.25;4.50;;;;;;;-141.50;100.00;63355.56;5045060;28;20055;-78
2023/09/08 07:23:31;;;;;;;7.72;4.40;;;;;;;-141.50;100.00;63355.56;5028710;28;20041;-79
2023/09/08 07:25:58;;;;;;;8.57;3.90;;;;;;;-141.50;100.00;63355.56;5045730;28;20112;-79
2023/09/08 07:28:28;;;;;;;10.43;4.10;;;;;;;-141.50;100.00;63355.56;5029143;28;20110;-79
2023/09/08 07:31:03;;;;;;;6.75;3.90;;;;;;;-141.50;100.00;63355.56;5030039;28;20037;-77
2023/09/08 07:33:32;;;;;;;9.65;4.53;;;;;;;-141.50;100.00;63355.56;5046050;28;20041;-77
2023/09/08 07:36:07;;;;;;;6.63;3.70;;;;;;;-141.50;100.00;63355.56;5045272;28;20422;-79
2023/09/08 07:38:34;;;;;;;8.90;3.90;;;;;;;-141.50;100.00;63355.56;5044269;28;20056;-79
2023/09/08 07:41:03;;;;;;;7.70;3.67;;;;;;;-141.50;100.00;63355.56;5062213;28;20037;-79
2023/09/08 07:43:31;;;;;;;9.23;4.30;;;;;;;-141.50;100.00;63355.56;5028489;28;20045;-79
2023/09/08 07:45:58;;;;;;;6.18;3.72;;;;;;;-141.50;100.00;63355.56;5045403;28;20167;-81
2023/09/08 07:48:25;;;;;;;10.18;3.13;;;;;;;-141.50;100.00;63355.56;5024893;28;20041;-80
2023/09/08 07:50:52;;;;;;;7.05;3.40;;;;;;;-141.50;100.00;63355.56;5036809;28;20037;-79
2023/09/08 07:53:19;;;;;;;5.70;3.05;;;;;;;-141.50;100.00;63355.56;5070888;28;20040;-80
2023/09/08 07:55:45;;;;;;;6.63;3.20;;;;;;;-141.50;100.00;63355.56;5035797;28;20088;-79
2023/09/08 07:58:12;;;;;;;5.63;3.20;;;;;;;-141.50;100.00;63355.56;5051374;28;20049;-80
2023/09/08 08:00:39;;;;;;;7.90;3.15;;;;;;;-141.50;100.00;63355.56;5066565;28;20420;-79
2023/09/08 08:03:06;;;;;;;6.18;3.13;;;;;;;-141.50;100.00;63355.56;5052756;28;20029;-78
2023/09/08 08:05:33;;;;;;;8.60;2.97;;;;;;;-141.50;100.00;63355.56;5069841;28;20260;-79
2023/09/08 08:08:00;;;;;;;4.95;2.75;;;;;;;-141.50;100.00;63355.56;5050825;28;20158;-79
2023/09/08 08:10:27;;;;;;;4.82;2.70;;;;;;;-141.50;100.00;63355.56;5048469;28;20061;-80
2023/09/08 08:12:53;;;;;;;5.55;3.22;;;;;;;-141.50;100.00;63355.56;5064918;28;20557;-79
2023/09/08 08:15:23;;;;;;;4.10;2.70;;;;;;;-141.50;100.00;63355.56;5064024;28;20073;-78
2023/09/08 08:17:50;;;;;;;4.78;2.95;;;;;;;-141.50;100.00;63355.56;5029620;28;20056;-79
2023/09/08 08:20:19;;;;;;;4.75;2.85;;;;;;;-141.50;100.00;63355.56;5046166;28;20049;-79
2023/09/08 08:22:46;;;;;;;6.13;2.80;;;;;;;-141.50;100.00;63355.56;5046383;28;20045;-78
2023/09/08 08:25:13;;;;;;;5.05;2.97;;;;;;;-141.50;100.00;63355.56;5044890;28;20049;-78
2023/09/08 08:27:41;;;;;;;4.50;2.83;;;;;;;-141.50;100.00;63355.56;5045051;28;20048;-77
2023/09/08 08:30:08;;;;;;;5.10;2.83;;;;;;;-141.50;100.00;63355.56;5044427;28;20045;-80
2023/09/08 08:32:35;;;;;;;4.78;2.58;;;;;;;-141.50;100.00;63355.56;5046873;28;20048;-79
2023/09/08 08:35:04;;;;;;;4.93;2.85;;;;;;;-141.50;100.00;63355.56;5068362;28;20241;-79
2023/09/08 08:37:31;;;;;;;4.75;2.92;;;;;;;-141.50;100.00;63355.56;5064732;28;20683;-80
2023/09/08 08:39:58;;;;;;;4.75;2.80;;;;;;;-141.50;100.00;63355.56;5064408;28;20495;-78
2023/09/08 08:42:31;;;;;;;4.53;3.00;;;;;;;-141.50;100.00;63355.56;5047211;28;20045;-79
2023/09/08 08:44:59;;;;;;;5.78;2.97;;;;;;;-141.50;100.00;63355.56;5056404;28;20278;-79
2023/09/08 08:47:29;;;;;;;4.00;2.72;;;;;;;-141.50;100.00;63355.56;5051278;28;20116;-79
2023/09/08 08:50:00;;;;;;;5.25;2.83;;;;;;;-141.50;100.00;63355.56;5054165;28;20119;-79
2023/09/08 08:52:28;;;;;;;6.75;2.63;;;;;;;-141.50;100.00;63355.56;5038682;28;20045;-79
2023/09/08 08:54:56;;;;;;;4.80;3.03;;;;;;;-141.50;100.00;63355.56;5037072;28;20063;-80
2023/09/08 08:57:23;;;;;;;7.65;3.00;;;;;;;-141.50;100.00;63355.56;5038806;28;20060;-79
2023/09/08 08:59:51;;;;;;;4.53;2.50;;;;;;;-141.50;100.00;63355.56;5039136;28;20044;-79
2023/09/08 09:02:18;;;;;;;4.07;2.75;;;;;;;-141.50;100.00;63355.56;5041028;28;20056;-78
2023/09/08 09:04:46;;;;;;;6.70;2.65;;;;;;;-141.50;100.00;63355.56;5058857;28;20038;-78
2023/09/08 09:07:13;;;;;;;4.88;2.83;;;;;;;-141.50;100.00;63355.56;5040801;28;20052;-78
2023/09/08 09:09:40;;;;;;;6.25;2.50;;;;;;;-141.50;100.00;63355.56;5057969;28;20541;-79
2023/09/08 09:12:06;;;;;;;5.15;2.75;;;;;;;-141.50;100.00;63355.56;5056549;28;20049;-78
2023/09/08 09:14:34;;;;;;;4.70;3.05;;;;;;;-141.50;100.00;63355.56;5060120;28;20040;-78
2023/09/08 09:17:04;;;;;;;4.18;2.28;;;;;;;-141.50;100.00;63355.56;5032162;28;20040;-79
2023/09/08 09:19:31;;;;;;;6.18;2.90;;;;;;;-141.50;100.00;63355.56;5047680;28;20037;-79
2023/09/08 09:21:59;;;;;;;4.68;2.70;;;;;;;-141.50;100.00;63355.56;5065104;28;20037;-79
2023/09/08 09:24:28;;;;;;;5.88;2.75;;;;;;;-141.50;100.00;63355.56;5031217;28;20053;-79
2023/09/08 09:26:56;;;;;;;3.80;2.15;;;;;;;-141.50;100.00;63355.56;5047830;28;20044;-79
2023/09/08 09:29:23;;;;;;;3.47;2.25;;;;;;;-141.50;100.00;63355.56;5047219;28;20041;-79
2023/09/08 09:31:53;;;;;;;4.68;2.75;;;;;;;-141.50;100.00;63355.56;5047596;28;20051;-79
2023/09/08 09:34:21;;;;;;;3.35;2.15;;;;;;;-141.50;100.00;63355.56;5046634;28;20049;-80
2023/09/08 09:36:49;;;;;;;4.82;2.83;;;;;;;-141.50;100.00;63355.56;5063885;28;20044;-79
2023/09/08 09:39:18;;;;;;;5.13;2.22;;;;;;;-141.50;100.00;63355.56;5046354;28;20068;-80
2023/09/08 09:41:46;;;;;;;3.35;2.28;;;;;;;-141.50;100.00;63355.56;5049998;28;20463;-79
2023/09/08 09:44:15;;;;;;;4.35;2.30;;;;;;;-141.50;100.00;63355.56;5031160;28;20099;-79
2023/09/08 09:46:45;;;;;;;3.28;2.17;;;;;;;-141.50;100.00;63355.56;5050807;28;20045;-79
2023/09/08 09:49:14;;;;;;;2.80;2.10;;;;;;;-141.50;100.00;63355.56;5037167;28;20060;-80
2023/09/08 09:51:43;;;;;;;4.35;2.50;;;;;;;-141.50;100.00;63355.56;5062861;28;20044;-79
2023/09/08 09:54:10;;;;;;;4.60;2.47;;;;;;;-141.50;100.00;63355.56;5012931;28;20079;-80
2023/09/08 09:56:39;;;;;;;3.45;2.33;;;;;;;-141.50;100.00;63355.56;5040154;28;20180;-80
2023/09/08 09:59:11;;;;;;;4.85;2.35;;;;;;;-141.50;100.00;63355.56;5036947;28;20205;-79
2023/09/08 10:01:39;;;;;;;4.38;2.20;;;;;;;-141.50;100.00;63355.56;5038594;28;20444;-80
2023/09/08 10:04:06;;;;;;;3.45;2.30;;;;;;;-141.50;100.00;63355.56;5040581;28;20060;-80
2023/09/08 10:06:35;;;;;;;2.95;2.00;;;;;;;-141.50;100.00;63355.56;5038117;28;20124;-81
2023/09/08 10:09:04;;;;;;;4.78;2.30;;;;;;;-141.50;100.00;63355.56;5060355;28;20053;-79
2023/09/08 10:11:59;;;;;;;5.38;2.20;;;;;;;-141.50;100.00;63355.56;5063873;28;20111;-80
2023/09/08 10:14:28;;;;;;;3.50;2.20;;;;;;;-141.50;100.00;63355.56;5063293;28;20412;-79
2023/09/08 10:16:58;;;;;;;2.97;2.15;;;;;;;-141.50;100.00;63355.56;5048095;28;20048;-80
2023/09/08 10:19:25;;;;;;;3.65;2.30;;;;;;;-141.50;100.00;63355.56;5064204;28;20048;-80
2023/09/08 10:21:57;;;;;;;3.50;2.53;;;;;;;-141.50;100.00;63355.56;5029860;28;20045;-80
2023/09/08 10:24:24;;;;;;;3.97;2.20;;;;;;;-141.50;100.00;63355.56;5056539;28;20024;-79
2023/09/08 10:26:56;;;;;;;4.18;2.08;;;;;;;-141.50;100.00;63355.56;5027499;28;20075;-80
2023/09/08 10:29:24;;;;;;;5.78;2.35;;;;;;;-141.50;100.00;63355.56;5060588;28;20128;-80
2023/09/08 10:31:53;;;;;;;4.35;2.30;;;;;;;-141.50;100.00;63355.56;5039306;28;20080;-80
2023/09/08 10:34:21;;;;;;;6.72;2.60;;;;;;;-141.50;100.00;63355.56;5059548;28;20049;-80
2023/09/08 10:36:48;;;;;;;4.07;2.17;;;;;;;-141.50;100.00;63355.56;5039729;28;20514;-79
2023/09/08 10:39:35;;;;;;;3.22;2.35;;;;;;;-141.50;100.00;63355.56;5042156;28;20565;-79
2023/09/08 10:42:20;;;;;;;4.55;2.47;;;;;;;-141.50;100.00;63355.56;5039696;28;20106;-79
2023/09/08 10:44:47;;;;;;;2.73;1.97;;;;;;;-141.50;100.00;63355.56;5019306;28;20117;-79
2023/09/08 10:47:20;;;;;;;3.45;2.13;;;;;;;-141.50;100.00;63355.56;5057600;28;20040;-80
2023/09/08 10:49:47;;;;;;;3.47;2.42;;;;;;;-141.50;100.00;63355.56;5056281;28;20785;-79
2023/09/08 10:52:14;;;;;;;4.30;2.38;;;;;;;-141.50;100.00;63355.56;5040904;28;20069;-79
2023/09/08 10:54:41;;;;;;;3.17;1.90;;;;;;;-141.50;100.00;63355.56;5025385;28;20044;-80
2023/09/08 10:57:16;;;;;;;3.63;2.40;;;;;;;-141.50;100.00;63355.56;5042320;28;20045;-79
2023/09/08 10:59:57;;;;;;;2.60;1.80;;;;;;;-141.50;100.00;63355.56;5059184;28;20421;-80
2023/09/08 11:02:39;;;;;;;3.35;2.03;;;;;;;-141.50;100.00;63355.56;5060838;28;20287;-80
2023/09/08 11:05:11;;;;;;;2.97;1.90;;;;;;;-141.50;100.00;63355.56;5025864;28;20084;-79
2023/09/08 11:07:38;;;;;;;3.88;2.08;;;;;;;-141.50;100.00;63355.56;5043027;28;21068;-81
2023/09/08 11:10:07;;;;;;;3.47;2.22;;;;;;;-141.50;100.00;63355.56;5042468;28;20077;-79
2023/09/08 11:12:34;;;;;;;3.70;2.25;;;;;;;-141.50;100.00;63355.56;5043426;28;20064;-79
2023/09/08 11:15:08;;;;;;;3.40;2.22;;;;;;;-141.50;100.00;63355.56;5060439;28;20465;-80